sensor_id;sensor_type;location;lat;lon;timestamp;P1;durP1;ratioP1;P2;durP2;ratioP2
20146;SDS011;10234;50.856;15.716;2022-12-18T00:00:46;23.37;;;12.43;;
20146;SDS011;10234;50.856;15.716;2022-12-18T00:03:13;21.47;;;10.20;;
20146;SDS011;10234;50.856;15.716;2022-12-18T00:05:47;18.63;;;10.20;;
20146;SDS011;10234;50.856;15.716;2022-12-18T00:08:14;24.40;;;11.10;;
20146;SDS011;10234;50.856;15.716;2022-12-18T00:10:41;21.27;;;11.20;;
20146;SDS011;10234;50.856;15.716;2022-12-18T00:13:08;18.73;;;10.23;;
20146;SDS011;10234;50.856;15.716;2022-12-18T00:15:35;19.00;;;10.10;;
20146;SDS011;10234;50.856;15.716;2022-12-18T00:18:03;16.47;;;9.30;;
20146;SDS011;10234;50.856;15.716;2022-12-18T00:20:30;26.53;;;10.33;;
20146;SDS011;10234;50.856;15.716;2022-12-18T00:23:02;29.13;;;11.80;;
20146;SDS011;10234;50.856;15.716;2022-12-18T00:25:30;24.77;;;12.77;;
20146;SDS011;10234;50.856;15.716;2022-12-18T00:27:59;23.23;;;11.83;;
20146;SDS011;10234;50.856;15.716;2022-12-18T00:30:26;25.20;;;11.07;;
20146;SDS011;10234;50.856;15.716;2022-12-18T00:32:53;26.87;;;12.63;;
20146;SDS011;10234;50.856;15.716;2022-12-18T00:35:20;21.93;;;10.27;;
20146;SDS011;10234;50.856;15.716;2022-12-18T00:37:47;18.53;;;9.33;;
20146;SDS011;10234;50.856;15.716;2022-12-18T00:40:15;25.43;;;11.17;;
20146;SDS011;10234;50.856;15.716;2022-12-18T00:42:42;32.67;;;12.83;;
20146;SDS011;10234;50.856;15.716;2022-12-18T00:45:21;17.90;;;8.80;;
20146;SDS011;10234;50.856;15.716;2022-12-18T00:47:49;18.90;;;7.83;;
20146;SDS011;10234;50.856;15.716;2022-12-18T00:50:17;19.43;;;9.67;;
20146;SDS011;10234;50.856;15.716;2022-12-18T00:52:44;16.53;;;7.93;;
20146;SDS011;10234;50.856;15.716;2022-12-18T00:55:11;25.43;;;9.90;;
20146;SDS011;10234;50.856;15.716;2022-12-18T00:57:39;23.00;;;10.30;;
20146;SDS011;10234;50.856;15.716;2022-12-18T01:00:07;20.53;;;9.73;;
20146;SDS011;10234;50.856;15.716;2022-12-18T01:02:36;22.40;;;9.97;;
20146;SDS011;10234;50.856;15.716;2022-12-18T01:05:03;17.40;;;8.70;;
20146;SDS011;10234;50.856;15.716;2022-12-18T01:07:31;17.33;;;7.13;;
20146;SDS011;10234;50.856;15.716;2022-12-18T01:09:58;14.00;;;7.43;;
20146;SDS011;10234;50.856;15.716;2022-12-18T01:12:25;18.67;;;8.43;;
20146;SDS011;10234;50.856;15.716;2022-12-18T01:14:53;24.53;;;10.93;;
20146;SDS011;10234;50.856;15.716;2022-12-18T01:17:20;13.37;;;6.73;;
20146;SDS011;10234;50.856;15.716;2022-12-18T01:19:48;12.47;;;6.40;;
20146;SDS011;10234;50.856;15.716;2022-12-18T01:22:15;14.23;;;7.07;;
20146;SDS011;10234;50.856;15.716;2022-12-18T01:24:42;15.23;;;7.40;;
20146;SDS011;10234;50.856;15.716;2022-12-18T01:27:09;17.93;;;7.67;;
20146;SDS011;10234;50.856;15.716;2022-12-18T01:29:36;15.70;;;6.77;;
20146;SDS011;10234;50.856;15.716;2022-12-18T01:32:05;15.27;;;7.07;;
20146;SDS011;10234;50.856;15.716;2022-12-18T01:34:32;17.13;;;7.90;;
20146;SDS011;10234;50.856;15.716;2022-12-18T01:37:00;14.10;;;6.90;;
20146;SDS011;10234;50.856;15.716;2022-12-18T01:39:28;19.03;;;7.40;;
20146;SDS011;10234;50.856;15.716;2022-12-18T01:41:56;11.30;;;6.30;;
20146;SDS011;10234;50.856;15.716;2022-12-18T01:47:27;13.20;;;6.77;;
20146;SDS011;10234;50.856;15.716;2022-12-18T01:49:57;17.33;;;7.87;;
20146;SDS011;10234;50.856;15.716;2022-12-18T01:52:27;24.40;;;9.30;;
20146;SDS011;10234;50.856;15.716;2022-12-18T01:54:56;16.37;;;4.77;;
20146;SDS011;10234;50.856;15.716;2022-12-18T01:57:24;21.23;;;9.80;;
20146;SDS011;10234;50.856;15.716;2022-12-18T01:59:52;15.03;;;7.17;;
20146;SDS011;10234;50.856;15.716;2022-12-18T02:02:22;17.53;;;7.70;;
20146;SDS011;10234;50.856;15.716;2022-12-18T02:04:50;14.43;;;6.80;;
20146;SDS011;10234;50.856;15.716;2022-12-18T02:07:19;16.80;;;7.90;;
20146;SDS011;10234;50.856;15.716;2022-12-18T02:09:54;14.27;;;6.70;;
20146;SDS011;10234;50.856;15.716;2022-12-18T02:12:27;11.93;;;6.63;;
20146;SDS011;10234;50.856;15.716;2022-12-18T02:15:02;15.23;;;6.93;;
20146;SDS011;10234;50.856;15.716;2022-12-18T02:17:36;11.37;;;5.27;;
20146;SDS011;10234;50.856;15.716;2022-12-18T02:20:12;14.77;;;6.93;;
20146;SDS011;10234;50.856;15.716;2022-12-18T02:22:44;16.47;;;7.33;;
20146;SDS011;10234;50.856;15.716;2022-12-18T02:25:28;17.77;;;7.40;;
20146;SDS011;10234;50.856;15.716;2022-12-18T02:28:09;17.37;;;7.00;;
20146;SDS011;10234;50.856;15.716;2022-12-18T02:30:38;12.83;;;6.30;;
20146;SDS011;10234;50.856;15.716;2022-12-18T02:33:06;14.93;;;6.00;;
20146;SDS011;10234;50.856;15.716;2022-12-18T02:35:35;17.10;;;7.70;;
20146;SDS011;10234;50.856;15.716;2022-12-18T02:38:04;16.20;;;7.57;;
20146;SDS011;10234;50.856;15.716;2022-12-18T02:40:32;15.83;;;8.27;;
20146;SDS011;10234;50.856;15.716;2022-12-18T02:43:02;20.60;;;8.10;;
20146;SDS011;10234;50.856;15.716;2022-12-18T02:45:34;20.33;;;7.80;;
20146;SDS011;10234;50.856;15.716;2022-12-18T02:48:00;14.37;;;6.13;;
20146;SDS011;10234;50.856;15.716;2022-12-18T02:50:29;16.27;;;6.03;;
20146;SDS011;10234;50.856;15.716;2022-12-18T02:53:04;11.83;;;5.53;;
20146;SDS011;10234;50.856;15.716;2022-12-18T02:55:41;14.03;;;6.40;;
20146;SDS011;10234;50.856;15.716;2022-12-18T02:58:20;9.97;;;5.83;;
20146;SDS011;10234;50.856;15.716;2022-12-18T03:00:58;14.27;;;6.03;;
20146;SDS011;10234;50.856;15.716;2022-12-18T03:03:29;12.17;;;6.13;;
20146;SDS011;10234;50.856;15.716;2022-12-18T03:06:02;14.17;;;6.33;;
20146;SDS011;10234;50.856;15.716;2022-12-18T03:08:33;10.43;;;5.50;;
20146;SDS011;10234;50.856;15.716;2022-12-18T03:11:05;16.37;;;6.97;;
20146;SDS011;10234;50.856;15.716;2022-12-18T03:13:34;14.70;;;6.70;;
20146;SDS011;10234;50.856;15.716;2022-12-18T03:16:07;16.40;;;7.03;;
20146;SDS011;10234;50.856;15.716;2022-12-18T03:18:39;15.80;;;6.83;;
20146;SDS011;10234;50.856;15.716;2022-12-18T03:21:11;18.67;;;5.43;;
20146;SDS011;10234;50.856;15.716;2022-12-18T03:23:40;17.00;;;7.57;;
20146;SDS011;10234;50.856;15.716;2022-12-18T03:26:12;13.50;;;6.27;;
20146;SDS011;10234;50.856;15.716;2022-12-18T03:28:43;15.80;;;6.60;;
20146;SDS011;10234;50.856;15.716;2022-12-18T03:31:17;14.17;;;6.67;;
20146;SDS011;10234;50.856;15.716;2022-12-18T03:33:51;12.23;;;6.13;;
20146;SDS011;10234;50.856;15.716;2022-12-18T03:36:19;13.10;;;6.23;;
20146;SDS011;10234;50.856;15.716;2022-12-18T03:38:46;17.07;;;6.63;;
20146;SDS011;10234;50.856;15.716;2022-12-18T03:41:15;15.53;;;6.97;;
20146;SDS011;10234;50.856;15.716;2022-12-18T03:43:47;17.77;;;7.63;;
20146;SDS011;10234;50.856;15.716;2022-12-18T03:46:22;18.50;;;8.63;;
20146;SDS011;10234;50.856;15.716;2022-12-18T03:48:55;16.93;;;9.00;;
20146;SDS011;10234;50.856;15.716;2022-12-18T03:51:28;31.83;;;12.00;;
20146;SDS011;10234;50.856;15.716;2022-12-18T03:54:03;26.37;;;11.63;;
20146;SDS011;10234;50.856;15.716;2022-12-18T03:56:33;22.83;;;8.63;;
20146;SDS011;10234;50.856;15.716;2022-12-18T03:59:04;22.63;;;10.37;;
20146;SDS011;10234;50.856;15.716;2022-12-18T04:01:33;25.70;;;10.70;;
20146;SDS011;10234;50.856;15.716;2022-12-18T04:04:04;23.00;;;10.33;;
20146;SDS011;10234;50.856;15.716;2022-12-18T04:06:32;18.63;;;8.93;;
20146;SDS011;10234;50.856;15.716;2022-12-18T04:09:00;23.67;;;9.60;;
20146;SDS011;10234;50.856;15.716;2022-12-18T04:11:27;28.47;;;11.30;;
20146;SDS011;10234;50.856;15.716;2022-12-18T04:13:55;22.93;;;10.67;;
20146;SDS011;10234;50.856;15.716;2022-12-18T04:16:22;22.93;;;10.43;;
20146;SDS011;10234;50.856;15.716;2022-12-18T04:18:51;22.47;;;9.70;;
20146;SDS011;10234;50.856;15.716;2022-12-18T04:21:18;25.37;;;9.77;;
20146;SDS011;10234;50.856;15.716;2022-12-18T04:23:45;24.50;;;9.17;;
20146;SDS011;10234;50.856;15.716;2022-12-18T04:26:12;21.83;;;10.30;;
20146;SDS011;10234;50.856;15.716;2022-12-18T04:28:39;22.80;;;9.80;;
20146;SDS011;10234;50.856;15.716;2022-12-18T04:31:07;23.37;;;10.10;;
20146;SDS011;10234;50.856;15.716;2022-12-18T04:33:34;31.00;;;12.57;;
20146;SDS011;10234;50.856;15.716;2022-12-18T04:36:02;24.17;;;10.83;;
20146;SDS011;10234;50.856;15.716;2022-12-18T04:38:29;24.57;;;11.50;;
20146;SDS011;10234;50.856;15.716;2022-12-18T04:40:57;27.73;;;10.93;;
20146;SDS011;10234;50.856;15.716;2022-12-18T04:43:24;27.73;;;12.73;;
20146;SDS011;10234;50.856;15.716;2022-12-18T04:45:51;39.53;;;13.77;;
20146;SDS011;10234;50.856;15.716;2022-12-18T04:48:18;33.83;;;13.70;;
20146;SDS011;10234;50.856;15.716;2022-12-18T04:50:46;39.40;;;14.33;;
20146;SDS011;10234;50.856;15.716;2022-12-18T04:53:15;29.53;;;12.07;;
20146;SDS011;10234;50.856;15.716;2022-12-18T04:55:41;32.03;;;12.97;;
20146;SDS011;10234;50.856;15.716;2022-12-18T04:58:08;28.33;;;11.83;;
20146;SDS011;10234;50.856;15.716;2022-12-18T05:00:36;39.47;;;14.90;;
20146;SDS011;10234;50.856;15.716;2022-12-18T05:03:03;31.03;;;13.20;;
20146;SDS011;10234;50.856;15.716;2022-12-18T05:05:30;35.77;;;12.20;;
20146;SDS011;10234;50.856;15.716;2022-12-18T05:07:57;31.30;;;14.03;;
20146;SDS011;10234;50.856;15.716;2022-12-18T05:10:26;36.33;;;14.13;;
20146;SDS011;10234;50.856;15.716;2022-12-18T05:12:53;30.17;;;13.47;;
20146;SDS011;10234;50.856;15.716;2022-12-18T05:15:27;31.80;;;13.40;;
20146;SDS011;10234;50.856;15.716;2022-12-18T05:17:55;30.03;;;11.97;;
20146;SDS011;10234;50.856;15.716;2022-12-18T05:20:22;36.27;;;14.03;;
20146;SDS011;10234;50.856;15.716;2022-12-18T05:22:49;29.43;;;12.37;;
20146;SDS011;10234;50.856;15.716;2022-12-18T05:25:16;20.80;;;10.83;;
20146;SDS011;10234;50.856;15.716;2022-12-18T05:27:45;32.53;;;12.27;;
20146;SDS011;10234;50.856;15.716;2022-12-18T05:30:13;28.07;;;11.77;;
20146;SDS011;10234;50.856;15.716;2022-12-18T05:32:41;24.90;;;11.70;;
20146;SDS011;10234;50.856;15.716;2022-12-18T05:35:09;30.13;;;13.30;;
20146;SDS011;10234;50.856;15.716;2022-12-18T05:37:36;35.07;;;13.60;;
20146;SDS011;10234;50.856;15.716;2022-12-18T05:40:04;32.53;;;12.33;;
20146;SDS011;10234;50.856;15.716;2022-12-18T05:42:31;37.80;;;12.90;;
20146;SDS011;10234;50.856;15.716;2022-12-18T05:45:00;35.17;;;13.00;;
20146;SDS011;10234;50.856;15.716;2022-12-18T05:47:27;32.13;;;12.53;;
20146;SDS011;10234;50.856;15.716;2022-12-18T05:49:54;27.50;;;12.63;;
20146;SDS011;10234;50.856;15.716;2022-12-18T05:52:22;43.50;;;13.37;;
20146;SDS011;10234;50.856;15.716;2022-12-18T05:54:49;33.13;;;13.73;;
20146;SDS011;10234;50.856;15.716;2022-12-18T05:57:16;31.30;;;11.47;;
20146;SDS011;10234;50.856;15.716;2022-12-18T05:59:43;33.27;;;12.43;;
20146;SDS011;10234;50.856;15.716;2022-12-18T06:02:12;33.33;;;12.00;;
20146;SDS011;10234;50.856;15.716;2022-12-18T06:04:39;23.90;;;12.47;;
20146;SDS011;10234;50.856;15.716;2022-12-18T06:07:06;28.60;;;11.00;;
20146;SDS011;10234;50.856;15.716;2022-12-18T06:09:33;34.70;;;12.10;;
20146;SDS011;10234;50.856;15.716;2022-12-18T06:12:00;42.73;;;13.43;;
20146;SDS011;10234;50.856;15.716;2022-12-18T06:14:27;34.97;;;13.47;;
20146;SDS011;10234;50.856;15.716;2022-12-18T06:16:54;20.23;;;9.10;;
20146;SDS011;10234;50.856;15.716;2022-12-18T06:19:23;26.77;;;10.83;;
20146;SDS011;10234;50.856;15.716;2022-12-18T06:21:50;24.60;;;11.83;;
20146;SDS011;10234;50.856;15.716;2022-12-18T06:24:17;24.83;;;9.27;;
20146;SDS011;10234;50.856;15.716;2022-12-18T06:26:44;40.10;;;15.27;;
20146;SDS011;10234;50.856;15.716;2022-12-18T06:29:11;32.93;;;12.87;;
20146;SDS011;10234;50.856;15.716;2022-12-18T06:31:38;24.53;;;10.60;;
20146;SDS011;10234;50.856;15.716;2022-12-18T06:34:05;27.23;;;10.60;;
20146;SDS011;10234;50.856;15.716;2022-12-18T06:36:34;31.93;;;12.23;;
20146;SDS011;10234;50.856;15.716;2022-12-18T06:39:01;29.07;;;11.47;;
20146;SDS011;10234;50.856;15.716;2022-12-18T06:41:28;28.50;;;11.77;;
20146;SDS011;10234;50.856;15.716;2022-12-18T06:43:55;30.30;;;12.13;;
20146;SDS011;10234;50.856;15.716;2022-12-18T06:46:24;25.90;;;10.67;;
20146;SDS011;10234;50.856;15.716;2022-12-18T06:48:51;35.77;;;13.07;;
20146;SDS011;10234;50.856;15.716;2022-12-18T06:51:18;32.17;;;10.83;;
20146;SDS011;10234;50.856;15.716;2022-12-18T06:53:47;33.43;;;11.47;;
20146;SDS011;10234;50.856;15.716;2022-12-18T06:56:14;33.07;;;12.10;;
20146;SDS011;10234;50.856;15.716;2022-12-18T06:58:41;45.97;;;16.10;;
20146;SDS011;10234;50.856;15.716;2022-12-18T07:01:10;33.67;;;13.37;;
20146;SDS011;10234;50.856;15.716;2022-12-18T07:03:40;33.27;;;12.87;;
20146;SDS011;10234;50.856;15.716;2022-12-18T07:06:12;30.90;;;11.73;;
20146;SDS011;10234;50.856;15.716;2022-12-18T07:08:40;33.30;;;11.77;;
20146;SDS011;10234;50.856;15.716;2022-12-18T07:11:08;35.33;;;11.20;;
20146;SDS011;10234;50.856;15.716;2022-12-18T07:13:35;24.93;;;11.43;;
20146;SDS011;10234;50.856;15.716;2022-12-18T07:16:03;39.53;;;13.33;;
20146;SDS011;10234;50.856;15.716;2022-12-18T07:18:31;31.30;;;11.50;;
20146;SDS011;10234;50.856;15.716;2022-12-18T07:21:01;36.03;;;12.73;;
20146;SDS011;10234;50.856;15.716;2022-12-18T07:23:29;46.53;;;17.40;;
20146;SDS011;10234;50.856;15.716;2022-12-18T07:25:59;42.13;;;13.80;;
20146;SDS011;10234;50.856;15.716;2022-12-18T07:28:28;35.77;;;13.73;;
20146;SDS011;10234;50.856;15.716;2022-12-18T07:30:55;33.97;;;14.77;;
20146;SDS011;10234;50.856;15.716;2022-12-18T07:33:23;31.77;;;13.60;;
20146;SDS011;10234;50.856;15.716;2022-12-18T07:35:51;29.30;;;12.30;;
20146;SDS011;10234;50.856;15.716;2022-12-18T07:38:18;36.67;;;12.60;;
20146;SDS011;10234;50.856;15.716;2022-12-18T07:40:45;25.30;;;11.17;;
20146;SDS011;10234;50.856;15.716;2022-12-18T07:43:12;34.43;;;12.87;;
20146;SDS011;10234;50.856;15.716;2022-12-18T07:45:41;33.47;;;12.70;;
20146;SDS011;10234;50.856;15.716;2022-12-18T07:48:08;30.07;;;13.70;;
20146;SDS011;10234;50.856;15.716;2022-12-18T07:50:35;32.13;;;12.47;;
20146;SDS011;10234;50.856;15.716;2022-12-18T07:53:02;30.60;;;12.53;;
20146;SDS011;10234;50.856;15.716;2022-12-18T07:55:30;35.43;;;12.83;;
20146;SDS011;10234;50.856;15.716;2022-12-18T07:58:00;33.67;;;12.70;;
20146;SDS011;10234;50.856;15.716;2022-12-18T08:00:27;31.47;;;12.43;;
20146;SDS011;10234;50.856;15.716;2022-12-18T08:02:56;29.37;;;11.27;;
20146;SDS011;10234;50.856;15.716;2022-12-18T08:05:23;32.37;;;12.67;;
20146;SDS011;10234;50.856;15.716;2022-12-18T08:07:50;34.00;;;12.40;;
20146;SDS011;10234;50.856;15.716;2022-12-18T08:10:17;29.30;;;12.17;;
20146;SDS011;10234;50.856;15.716;2022-12-18T08:12:45;33.03;;;11.87;;
20146;SDS011;10234;50.856;15.716;2022-12-18T08:15:12;44.07;;;14.30;;
20146;SDS011;10234;50.856;15.716;2022-12-18T08:17:39;46.87;;;15.17;;
20146;SDS011;10234;50.856;15.716;2022-12-18T08:20:08;48.27;;;13.47;;
20146;SDS011;10234;50.856;15.716;2022-12-18T08:22:35;49.70;;;14.13;;
20146;SDS011;10234;50.856;15.716;2022-12-18T08:25:03;45.30;;;13.80;;
20146;SDS011;10234;50.856;15.716;2022-12-18T08:27:30;37.03;;;12.87;;
20146;SDS011;10234;50.856;15.716;2022-12-18T08:29:57;52.27;;;14.03;;
20146;SDS011;10234;50.856;15.716;2022-12-18T08:32:25;41.03;;;13.10;;
20146;SDS011;10234;50.856;15.716;2022-12-18T08:34:52;42.30;;;13.67;;
20146;SDS011;10234;50.856;15.716;2022-12-18T08:37:20;26.47;;;11.50;;
20146;SDS011;10234;50.856;15.716;2022-12-18T08:39:47;31.43;;;11.83;;
20146;SDS011;10234;50.856;15.716;2022-12-18T08:42:15;32.23;;;12.70;;
20146;SDS011;10234;50.856;15.716;2022-12-18T08:45:00;26.27;;;10.80;;
20146;SDS011;10234;50.856;15.716;2022-12-18T08:47:27;58.05;;;20.48;;
20146;SDS011;10234;50.856;15.716;2022-12-18T08:49:54;67.97;;;14.07;;
20146;SDS011;10234;50.856;15.716;2022-12-18T08:52:22;51.90;;;15.70;;
20146;SDS011;10234;50.856;15.716;2022-12-18T08:54:49;38.83;;;14.87;;
20146;SDS011;10234;50.856;15.716;2022-12-18T08:57:16;34.47;;;14.90;;
20146;SDS011;10234;50.856;15.716;2022-12-18T08:59:43;41.33;;;16.07;;
20146;SDS011;10234;50.856;15.716;2022-12-18T09:02:11;36.20;;;12.43;;
20146;SDS011;10234;50.856;15.716;2022-12-18T09:04:38;39.17;;;16.60;;
20146;SDS011;10234;50.856;15.716;2022-12-18T09:07:05;38.00;;;15.40;;
20146;SDS011;10234;50.856;15.716;2022-12-18T09:09:34;36.40;;;15.03;;
20146;SDS011;10234;50.856;15.716;2022-12-18T09:12:01;51.07;;;17.83;;
20146;SDS011;10234;50.856;15.716;2022-12-18T09:14:28;37.90;;;13.20;;
20146;SDS011;10234;50.856;15.716;2022-12-18T09:16:55;33.67;;;15.00;;
20146;SDS011;10234;50.856;15.716;2022-12-18T09:19:22;37.60;;;16.85;;
20146;SDS011;10234;50.856;15.716;2022-12-18T09:21:49;36.93;;;17.73;;
20146;SDS011;10234;50.856;15.716;2022-12-18T09:24:17;43.55;;;18.90;;
20146;SDS011;10234;50.856;15.716;2022-12-18T09:26:45;43.13;;;19.27;;
20146;SDS011;10234;50.856;15.716;2022-12-18T09:29:12;41.63;;;17.08;;
20146;SDS011;10234;50.856;15.716;2022-12-18T09:31:40;35.88;;;16.27;;
20146;SDS011;10234;50.856;15.716;2022-12-18T09:34:07;36.00;;;16.55;;
20146;SDS011;10234;50.856;15.716;2022-12-18T09:36:34;33.10;;;15.48;;
20146;SDS011;10234;50.856;15.716;2022-12-18T09:39:01;34.58;;;17.08;;
20146;SDS011;10234;50.856;15.716;2022-12-18T09:41:33;39.58;;;17.73;;
20146;SDS011;10234;50.856;15.716;2022-12-18T09:44:20;34.50;;;13.45;;
20146;SDS011;10234;50.856;15.716;2022-12-18T09:46:53;29.55;;;14.55;;
20146;SDS011;10234;50.856;15.716;2022-12-18T09:49:28;37.78;;;16.58;;
20146;SDS011;10234;50.856;15.716;2022-12-18T09:51:57;31.45;;;16.60;;
20146;SDS011;10234;50.856;15.716;2022-12-18T09:54:30;39.45;;;20.85;;
20146;SDS011;10234;50.856;15.716;2022-12-18T09:57:02;29.92;;;16.70;;
20146;SDS011;10234;50.856;15.716;2022-12-18T09:59:32;35.63;;;18.30;;
20146;SDS011;10234;50.856;15.716;2022-12-18T10:02:10;32.78;;;16.80;;
20146;SDS011;10234;50.856;15.716;2022-12-18T10:04:42;29.10;;;17.55;;
20146;SDS011;10234;50.856;15.716;2022-12-18T10:07:12;35.33;;;18.45;;
20146;SDS011;10234;50.856;15.716;2022-12-18T10:09:46;34.55;;;18.92;;
20146;SDS011;10234;50.856;15.716;2022-12-18T10:12:23;40.70;;;21.98;;
20146;SDS011;10234;50.856;15.716;2022-12-18T10:15:01;40.95;;;22.52;;
20146;SDS011;10234;50.856;15.716;2022-12-18T10:17:38;37.63;;;19.65;;
20146;SDS011;10234;50.856;15.716;2022-12-18T10:20:10;38.60;;;21.77;;
20146;SDS011;10234;50.856;15.716;2022-12-18T10:22:43;48.42;;;25.52;;
20146;SDS011;10234;50.856;15.716;2022-12-18T10:25:21;49.60;;;25.77;;
20146;SDS011;10234;50.856;15.716;2022-12-18T10:27:51;50.15;;;27.48;;
20146;SDS011;10234;50.856;15.716;2022-12-18T10:30:22;39.92;;;21.45;;
20146;SDS011;10234;50.856;15.716;2022-12-18T10:32:50;32.13;;;18.90;;
20146;SDS011;10234;50.856;15.716;2022-12-18T10:35:18;38.40;;;20.52;;
20146;SDS011;10234;50.856;15.716;2022-12-18T10:38:04;35.28;;;19.50;;
20146;SDS011;10234;50.856;15.716;2022-12-18T10:40:36;32.90;;;18.75;;
20146;SDS011;10234;50.856;15.716;2022-12-18T10:43:16;36.17;;;19.17;;
20146;SDS011;10234;50.856;15.716;2022-12-18T10:45:59;38.25;;;22.27;;
20146;SDS011;10234;50.856;15.716;2022-12-18T10:48:28;35.70;;;20.83;;
20146;SDS011;10234;50.856;15.716;2022-12-18T10:50:57;37.42;;;20.38;;
20146;SDS011;10234;50.856;15.716;2022-12-18T10:53:25;33.83;;;19.80;;
20146;SDS011;10234;50.856;15.716;2022-12-18T10:55:53;43.30;;;24.13;;
20146;SDS011;10234;50.856;15.716;2022-12-18T10:58:25;37.95;;;21.25;;
20146;SDS011;10234;50.856;15.716;2022-12-18T11:01:05;39.75;;;23.25;;
20146;SDS011;10234;50.856;15.716;2022-12-18T11:03:35;41.85;;;23.80;;
20146;SDS011;10234;50.856;15.716;2022-12-18T11:06:08;40.80;;;25.23;;
20146;SDS011;10234;50.856;15.716;2022-12-18T11:08:36;43.05;;;25.00;;
20146;SDS011;10234;50.856;15.716;2022-12-18T11:11:04;42.63;;;24.10;;
20146;SDS011;10234;50.856;15.716;2022-12-18T11:13:41;44.40;;;25.40;;
20146;SDS011;10234;50.856;15.716;2022-12-18T11:16:23;43.53;;;24.52;;
20146;SDS011;10234;50.856;15.716;2022-12-18T11:18:51;44.78;;;25.20;;
20146;SDS011;10234;50.856;15.716;2022-12-18T11:21:18;43.75;;;24.05;;
20146;SDS011;10234;50.856;15.716;2022-12-18T11:23:46;41.00;;;21.88;;
20146;SDS011;10234;50.856;15.716;2022-12-18T11:26:15;32.08;;;19.00;;
20146;SDS011;10234;50.856;15.716;2022-12-18T11:28:43;34.30;;;19.23;;
20146;SDS011;10234;50.856;15.716;2022-12-18T11:31:17;56.13;;;32.93;;
20146;SDS011;10234;50.856;15.716;2022-12-18T11:33:58;41.47;;;24.77;;
20146;SDS011;10234;50.856;15.716;2022-12-18T11:36:28;39.30;;;21.90;;
20146;SDS011;10234;50.856;15.716;2022-12-18T11:38:59;44.35;;;21.67;;
20146;SDS011;10234;50.856;15.716;2022-12-18T11:41:32;41.63;;;22.48;;
20146;SDS011;10234;50.856;15.716;2022-12-18T11:44:24;42.40;;;22.20;;
20146;SDS011;10234;50.856;15.716;2022-12-18T11:46:55;38.05;;;21.25;;
20146;SDS011;10234;50.856;15.716;2022-12-18T11:49:28;41.38;;;20.13;;
20146;SDS011;10234;50.856;15.716;2022-12-18T11:52:01;40.03;;;20.25;;
20146;SDS011;10234;50.856;15.716;2022-12-18T11:54:36;33.53;;;18.70;;
20146;SDS011;10234;50.856;15.716;2022-12-18T11:57:04;43.10;;;25.23;;
20146;SDS011;10234;50.856;15.716;2022-12-18T11:59:41;35.95;;;18.98;;
20146;SDS011;10234;50.856;15.716;2022-12-18T12:02:21;34.92;;;18.67;;
20146;SDS011;10234;50.856;15.716;2022-12-18T12:07:53;40.85;;;22.08;;
20146;SDS011;10234;50.856;15.716;2022-12-18T12:10:31;42.33;;;23.30;;
20146;SDS011;10234;50.856;15.716;2022-12-18T12:13:05;43.92;;;23.40;;
20146;SDS011;10234;50.856;15.716;2022-12-18T12:15:43;45.80;;;23.35;;
20146;SDS011;10234;50.856;15.716;2022-12-18T12:18:20;48.28;;;24.67;;
20146;SDS011;10234;50.856;15.716;2022-12-18T12:20:59;47.35;;;24.95;;
20146;SDS011;10234;50.856;15.716;2022-12-18T12:23:33;38.20;;;19.98;;
20146;SDS011;10234;50.856;15.716;2022-12-18T12:26:07;32.42;;;18.33;;
20146;SDS011;10234;50.856;15.716;2022-12-18T12:28:50;40.45;;;22.33;;
20146;SDS011;10234;50.856;15.716;2022-12-18T12:31:32;37.37;;;20.87;;
20146;SDS011;10234;50.856;15.716;2022-12-18T12:34:14;36.95;;;18.50;;
20146;SDS011;10234;50.856;15.716;2022-12-18T12:36:49;31.85;;;18.80;;
20146;SDS011;10234;50.856;15.716;2022-12-18T12:39:26;34.40;;;19.40;;
20146;SDS011;10234;50.856;15.716;2022-12-18T12:41:56;32.25;;;17.80;;
20146;SDS011;10234;50.856;15.716;2022-12-18T12:44:43;43.00;;;22.15;;
20146;SDS011;10234;50.856;15.716;2022-12-18T12:47:14;36.45;;;18.58;;
20146;SDS011;10234;50.856;15.716;2022-12-18T12:49:43;37.05;;;19.33;;
20146;SDS011;10234;50.856;15.716;2022-12-18T12:52:15;44.00;;;22.58;;
20146;SDS011;10234;50.856;15.716;2022-12-18T12:54:46;41.92;;;21.33;;
20146;SDS011;10234;50.856;15.716;2022-12-18T12:57:15;51.67;;;23.67;;
20146;SDS011;10234;50.856;15.716;2022-12-18T12:59:49;42.58;;;22.00;;
20146;SDS011;10234;50.856;15.716;2022-12-18T13:02:22;44.50;;;22.55;;
20146;SDS011;10234;50.856;15.716;2022-12-18T13:04:56;40.05;;;20.65;;
20146;SDS011;10234;50.856;15.716;2022-12-18T13:07:31;43.05;;;21.33;;
20146;SDS011;10234;50.856;15.716;2022-12-18T13:10:13;35.72;;;18.55;;
20146;SDS011;10234;50.856;15.716;2022-12-18T13:12:52;62.67;;;29.60;;
20146;SDS011;10234;50.856;15.716;2022-12-18T13:15:22;52.35;;;25.70;;
20146;SDS011;10234;50.856;15.716;2022-12-18T13:18:02;56.53;;;28.60;;
20146;SDS011;10234;50.856;15.716;2022-12-18T13:20:41;59.00;;;32.00;;
20146;SDS011;10234;50.856;15.716;2022-12-18T13:23:27;44.65;;;24.25;;
20146;SDS011;10234;50.856;15.716;2022-12-18T13:25:55;36.65;;;19.98;;
20146;SDS011;10234;50.856;15.716;2022-12-18T13:28:24;35.42;;;16.85;;
20146;SDS011;10234;50.856;15.716;2022-12-18T13:34:33;41.15;;;18.23;;
20146;SDS011;10234;50.856;15.716;2022-12-18T13:43:32;38.78;;;18.25;;
20146;SDS011;10234;50.856;15.716;2022-12-18T13:46:05;34.17;;;16.75;;
20146;SDS011;10234;50.856;15.716;2022-12-18T13:48:49;39.40;;;18.67;;
20146;SDS011;10234;50.856;15.716;2022-12-18T13:51:18;42.65;;;19.20;;
20146;SDS011;10234;50.856;15.716;2022-12-18T13:53:47;39.85;;;20.30;;
20146;SDS011;10234;50.856;15.716;2022-12-18T13:56:21;38.28;;;18.10;;
20146;SDS011;10234;50.856;15.716;2022-12-18T14:01:47;39.30;;;17.35;;
20146;SDS011;10234;50.856;15.716;2022-12-18T14:04:18;35.90;;;16.55;;
20146;SDS011;10234;50.856;15.716;2022-12-18T14:06:49;37.50;;;17.42;;
20146;SDS011;10234;50.856;15.716;2022-12-18T14:09:19;32.05;;;15.20;;
20146;SDS011;10234;50.856;15.716;2022-12-18T14:11:51;32.47;;;16.42;;
20146;SDS011;10234;50.856;15.716;2022-12-18T14:14:40;30.00;;;15.18;;
20146;SDS011;10234;50.856;15.716;2022-12-18T14:17:09;34.75;;;16.23;;
20146;SDS011;10234;50.856;15.716;2022-12-18T14:19:40;37.50;;;17.40;;
20146;SDS011;10234;50.856;15.716;2022-12-18T14:22:10;41.07;;;17.47;;
20146;SDS011;10234;50.856;15.716;2022-12-18T14:24:40;37.78;;;16.17;;
20146;SDS011;10234;50.856;15.716;2022-12-18T14:27:12;32.17;;;14.57;;
20146;SDS011;10234;50.856;15.716;2022-12-18T14:29:46;40.20;;;16.77;;
20146;SDS011;10234;50.856;15.716;2022-12-18T14:32:16;32.67;;;14.87;;
20146;SDS011;10234;50.856;15.716;2022-12-18T14:34:45;40.72;;;20.33;;
20146;SDS011;10234;50.856;15.716;2022-12-18T14:37:13;41.83;;;18.53;;
20146;SDS011;10234;50.856;15.716;2022-12-18T14:39:51;38.17;;;17.40;;
20146;SDS011;10234;50.856;15.716;2022-12-18T14:42:22;36.43;;;16.50;;
20146;SDS011;10234;50.856;15.716;2022-12-18T14:47:54;33.97;;;15.57;;
20146;SDS011;10234;50.856;15.716;2022-12-18T14:50:21;34.17;;;15.53;;